Irving, TX

12:35 PM CDT on August 30, 2016 (GMT -0500)
Hackberry Creek | | Change Station

Elev 507 ft 32.91 °N, 96.98 °W | Updated 4 seconds ago

Scattered Clouds
Scattered Clouds
92.3 °F
Feels Like 102 °F
N
2.2
Wind Variable Wind from ESE
Gusts 5.3 mph

Today
High -- | Low -- °F
--% Chance of Precip.
Yesterday
High -- | Low -- °F
Precip. -- in
Pressure 30.04 in
Visibility 10.0 miles
Clouds Scattered Clouds 3200 ft
Scattered Clouds 18000 ft
Heat Index 102 °F
Dew Point 74 °F
Humidity 55%
Rainfall 0.00 in
Snow Depth Not available.
7:01 AM 7:54 PM
Waning Crescent, 3% visible
METAR KDFW 301653Z 06006KT 10SM SCT032TCU SCT180 32/23 A3007 RMK AO2 SLP172 TCU NE-SE DSNT ALQDS T03220228
Pressure 30.04 in
Visibility 10.0 miles
Clouds Scattered Clouds 3200 ft
Scattered Clouds 18000 ft
Heat Index 102 °F
Dew Point 74 °F
Humidity 55%
Rainfall 0.00 in
Snow Depth Not available.
7:01 AM 7:54 PM
Waning Crescent, 3% visible
METAR KDFW 301653Z 06006KT 10SM SCT032TCU SCT180 32/23 A3007 RMK AO2 SLP172 TCU NE-SE DSNT ALQDS T03220228

10-Day Weather Forecast

Almanac

Astronomy

Aug. 30, 2016 Rise Set
Actual Time
Civil Twilight
Nautical Twilight
Astronomical Twilight
Moon
Length of Visible Light
Length of Day
Tomorrow will be .
, % of the Moon is Illuminated

Today's Extremes

State Highs State Lows

Community

WunderPhotos

Upload Photos

1,935,853 photos uploaded!

WunderBlog® & News

Nearby

Air Quality

  Air Quality AQ Index Pollutant
Not available.

Snow Depth

Station Depth Elevation

Earthquake Activity

City Distance Mag. Time & Date
Minimum magnitude displayed is 2.5.

Coastal Water Temperatures

Place Temperature

Stations

Nearby Weather Stations

Station Location Temp. Windchill Dew Point Humidity Wind Precip. Elev Updated Type
                   

Watches & Warnings

There are currently no watches in effect.